sensor_id;sensor_type;location;lat;lon;timestamp;noise_LAeq;noise_LA_min;noise_LA_max;noise_LA01;noise_LA95
71020;Laerm;58902;51.436;5.980;2024-02-26T00:00:05;40.97;31.05;53.59;;
71020;Laerm;58902;51.436;5.980;2024-02-26T00:00:19;34.98;31.24;47.50;;
71020;Laerm;58902;51.436;5.980;2024-02-26T00:00:30;32.64;31.01;34.05;;
71020;Laerm;58902;51.436;5.980;2024-02-26T00:00:41;32.07;30.40;33.82;;
71020;Laerm;58902;51.436;5.980;2024-02-26T00:00:51;31.61;29.99;33.42;;
71020;Laerm;58902;51.436;5.980;2024-02-26T00:01:01;31.89;30.27;33.12;;
71020;Laerm;58902;51.436;5.980;2024-02-26T00:01:12;32.00;30.29;36.92;;
71020;Laerm;58902;51.436;5.980;2024-02-26T00:01:22;31.78;30.38;33.11;;
71020;Laerm;58902;51.436;5.980;2024-02-26T00:01:33;31.52;30.30;33.40;;
71020;Laerm;58902;51.436;5.980;2024-02-26T00:01:44;31.52;30.13;32.89;;
71020;Laerm;58902;51.436;5.980;2024-02-26T00:01:54;32.01;30.75;33.48;;
71020;Laerm;58902;51.436;5.980;2024-02-26T00:02:04;32.00;30.43;33.99;;
71020;Laerm;58902;51.436;5.980;2024-02-26T00:02:15;32.13;30.38;33.82;;
71020;Laerm;58902;51.436;5.980;2024-02-26T00:02:25;32.12;30.37;34.96;;
71020;Laerm;58902;51.436;5.980;2024-02-26T00:02:36;32.13;30.09;35.90;;
71020;Laerm;58902;51.436;5.980;2024-02-26T00:02:50;32.00;30.35;34.30;;
71020;Laerm;58902;51.436;5.980;2024-02-26T00:03:01;32.15;30.66;33.91;;
71020;Laerm;58902;51.436;5.980;2024-02-26T00:03:11;32.23;30.49;34.67;;
71020;Laerm;58902;51.436;5.980;2024-02-26T00:03:22;32.22;30.48;34.45;;
71020;Laerm;58902;51.436;5.980;2024-02-26T00:03:32;32.83;30.25;37.59;;
71020;Laerm;58902;51.436;5.980;2024-02-26T00:03:45;32.35;30.43;38.67;;
71020;Laerm;58902;51.436;5.980;2024-02-26T00:03:57;32.34;30.64;34.77;;
71020;Laerm;58902;51.436;5.980;2024-02-26T00:04:09;32.92;31.00;34.69;;
71020;Laerm;58902;51.436;5.980;2024-02-26T00:04:20;32.48;30.48;34.68;;
71020;Laerm;58902;51.436;5.980;2024-02-26T00:04:31;33.17;31.09;37.01;;
71020;Laerm;58902;51.436;5.980;2024-02-26T00:04:42;33.32;31.98;34.71;;
71020;Laerm;58902;51.436;5.980;2024-02-26T00:04:52;33.31;31.69;34.67;;
71020;Laerm;58902;51.436;5.980;2024-02-26T00:05:06;32.93;30.40;34.97;;
71020;Laerm;58902;51.436;5.980;2024-02-26T00:05:16;33.45;31.02;34.99;;
71020;Laerm;58902;51.436;5.980;2024-02-26T00:05:27;34.14;31.89;37.99;;
71020;Laerm;58902;51.436;5.980;2024-02-26T00:05:37;34.52;31.86;39.04;;
71020;Laerm;58902;51.436;5.980;2024-02-26T00:05:49;33.88;32.66;35.14;;
71020;Laerm;58902;51.436;5.980;2024-02-26T00:05:59;34.18;32.50;35.87;;
71020;Laerm;58902;51.436;5.980;2024-02-26T00:06:09;35.24;33.32;40.05;;
71020;Laerm;58902;51.436;5.980;2024-02-26T00:06:20;34.35;31.44;38.92;;
71020;Laerm;58902;51.436;5.980;2024-02-26T00:06:30;33.78;31.93;35.20;;
71020;Laerm;58902;51.436;5.980;2024-02-26T00:06:40;34.58;32.18;39.58;;
71020;Laerm;58902;51.436;5.980;2024-02-26T00:06:51;34.99;33.16;39.03;;
71020;Laerm;58902;51.436;5.980;2024-02-26T00:07:04;34.49;32.65;37.33;;
71020;Laerm;58902;51.436;5.980;2024-02-26T00:07:14;33.95;32.12;35.35;;
71020;Laerm;58902;51.436;5.980;2024-02-26T00:07:24;34.15;31.28;38.52;;
71020;Laerm;58902;51.436;5.980;2024-02-26T00:07:35;33.09;31.34;34.83;;
71020;Laerm;58902;51.436;5.980;2024-02-26T00:07:45;32.99;31.00;34.63;;
71020;Laerm;58902;51.436;5.980;2024-02-26T00:07:57;32.56;30.59;35.11;;
71020;Laerm;58902;51.436;5.980;2024-02-26T00:08:07;32.85;30.49;36.13;;
71020;Laerm;58902;51.436;5.980;2024-02-26T00:08:17;33.48;30.84;38.72;;
71020;Laerm;58902;51.436;5.980;2024-02-26T00:08:28;33.96;31.93;36.63;;
71020;Laerm;58902;51.436;5.980;2024-02-26T00:08:38;34.66;33.03;36.70;;
71020;Laerm;58902;51.436;5.980;2024-02-26T00:08:49;35.12;33.18;36.95;;
71020;Laerm;58902;51.436;5.980;2024-02-26T00:08:59;33.12;30.81;35.95;;
71020;Laerm;58902;51.436;5.980;2024-02-26T00:09:10;33.09;30.75;39.46;;
71020;Laerm;58902;51.436;5.980;2024-02-26T00:09:21;32.77;30.67;34.98;;
71020;Laerm;58902;51.436;5.980;2024-02-26T00:09:31;32.38;30.23;34.57;;
71020;Laerm;58902;51.436;5.980;2024-02-26T00:09:43;31.90;29.65;35.00;;
71020;Laerm;58902;51.436;5.980;2024-02-26T00:09:53;31.61;29.73;33.36;;
71020;Laerm;58902;51.436;5.980;2024-02-26T00:10:03;31.45;29.86;33.20;;
71020;Laerm;58902;51.436;5.980;2024-02-26T00:10:14;31.57;30.33;33.48;;
71020;Laerm;58902;51.436;5.980;2024-02-26T00:10:24;31.46;29.74;32.91;;
71020;Laerm;58902;51.436;5.980;2024-02-26T00:10:35;31.51;29.55;33.41;;
71020;Laerm;58902;51.436;5.980;2024-02-26T00:10:45;31.25;29.95;32.88;;
71020;Laerm;58902;51.436;5.980;2024-02-26T00:10:55;31.52;29.90;33.51;;
71020;Laerm;58902;51.436;5.980;2024-02-26T00:11:06;31.40;29.87;32.98;;
71020;Laerm;58902;51.436;5.980;2024-02-26T00:11:16;31.38;29.78;33.05;;
71020;Laerm;58902;51.436;5.980;2024-02-26T00:11:26;31.64;30.05;33.46;;
71020;Laerm;58902;51.436;5.980;2024-02-26T00:11:37;31.40;29.78;33.40;;
71020;Laerm;58902;51.436;5.980;2024-02-26T00:11:47;31.40;29.92;32.88;;
71020;Laerm;58902;51.436;5.980;2024-02-26T00:11:57;31.56;29.93;33.02;;
71020;Laerm;58902;51.436;5.980;2024-02-26T00:12:09;31.73;29.66;39.35;;
71020;Laerm;58902;51.436;5.980;2024-02-26T00:12:19;31.34;30.04;32.91;;
71020;Laerm;58902;51.436;5.980;2024-02-26T00:12:30;31.49;30.09;33.17;;
71020;Laerm;58902;51.436;5.980;2024-02-26T00:12:40;31.25;29.59;32.96;;
71020;Laerm;58902;51.436;5.980;2024-02-26T00:12:50;31.04;29.72;32.26;;
71020;Laerm;58902;51.436;5.980;2024-02-26T00:13:01;31.49;29.84;37.03;;
71020;Laerm;58902;51.436;5.980;2024-02-26T00:13:11;31.72;29.52;39.67;;
71020;Laerm;58902;51.436;5.980;2024-02-26T00:13:21;30.96;29.74;32.27;;
71020;Laerm;58902;51.436;5.980;2024-02-26T00:13:32;31.42;29.81;33.28;;
71020;Laerm;58902;51.436;5.980;2024-02-26T00:13:42;31.54;30.05;33.13;;
71020;Laerm;58902;51.436;5.980;2024-02-26T00:13:53;31.21;29.84;32.67;;
71020;Laerm;58902;51.436;5.980;2024-02-26T00:14:03;31.58;30.19;33.11;;
71020;Laerm;58902;51.436;5.980;2024-02-26T00:14:14;31.68;30.39;33.09;;
71020;Laerm;58902;51.436;5.980;2024-02-26T00:14:24;31.43;30.00;32.47;;
71020;Laerm;58902;51.436;5.980;2024-02-26T00:14:34;31.34;30.12;32.72;;
71020;Laerm;58902;51.436;5.980;2024-02-26T00:14:45;31.35;29.98;32.61;;
71020;Laerm;58902;51.436;5.980;2024-02-26T00:14:57;32.17;30.31;34.13;;
71020;Laerm;58902;51.436;5.980;2024-02-26T00:15:08;32.67;31.30;34.45;;
71020;Laerm;58902;51.436;5.980;2024-02-26T00:15:19;32.53;30.80;34.35;;
71020;Laerm;58902;51.436;5.980;2024-02-26T00:15:29;32.99;30.80;37.44;;
71020;Laerm;58902;51.436;5.980;2024-02-26T00:15:40;32.52;31.16;34.14;;
71020;Laerm;58902;51.436;5.980;2024-02-26T00:15:51;32.80;30.40;35.05;;
71020;Laerm;58902;51.436;5.980;2024-02-26T00:16:02;32.32;30.75;33.87;;
71020;Laerm;58902;51.436;5.980;2024-02-26T00:16:12;32.38;30.56;34.12;;
71020;Laerm;58902;51.436;5.980;2024-02-26T00:16:23;34.39;31.48;40.05;;
71020;Laerm;58902;51.436;5.980;2024-02-26T00:16:33;34.41;33.02;35.63;;
71020;Laerm;58902;51.436;5.980;2024-02-26T00:16:44;34.32;33.14;35.98;;
71020;Laerm;58902;51.436;5.980;2024-02-26T00:16:55;34.35;31.33;39.87;;
71020;Laerm;58902;51.436;5.980;2024-02-26T00:17:05;32.06;30.11;42.09;;
71020;Laerm;58902;51.436;5.980;2024-02-26T00:17:16;31.63;30.37;33.08;;
71020;Laerm;58902;51.436;5.980;2024-02-26T00:17:26;32.20;30.24;37.51;;
71020;Laerm;58902;51.436;5.980;2024-02-26T00:17:36;32.11;30.47;34.67;;
71020;Laerm;58902;51.436;5.980;2024-02-26T00:17:47;32.28;30.38;35.76;;
71020;Laerm;58902;51.436;5.980;2024-02-26T00:17:57;32.30;30.29;37.77;;
71020;Laerm;58902;51.436;5.980;2024-02-26T00:18:07;33.24;29.99;36.85;;
71020;Laerm;58902;51.436;5.980;2024-02-26T00:18:18;32.20;30.00;34.84;;
71020;Laerm;58902;51.436;5.980;2024-02-26T00:18:28;31.83;29.75;34.63;;
71020;Laerm;58902;51.436;5.980;2024-02-26T00:18:38;31.76;29.85;35.25;;
71020;Laerm;58902;51.436;5.980;2024-02-26T00:18:49;31.27;29.55;33.46;;
71020;Laerm;58902;51.436;5.980;2024-02-26T00:18:59;31.01;29.36;32.74;;
71020;Laerm;58902;51.436;5.980;2024-02-26T00:19:10;31.33;29.80;33.13;;
71020;Laerm;58902;51.436;5.980;2024-02-26T00:19:20;31.13;29.42;32.65;;
71020;Laerm;58902;51.436;5.980;2024-02-26T00:19:31;31.10;29.63;34.05;;
71020;Laerm;58902;51.436;5.980;2024-02-26T00:19:41;30.77;29.31;33.15;;
71020;Laerm;58902;51.436;5.980;2024-02-26T00:19:51;30.64;29.45;31.81;;
71020;Laerm;58902;51.436;5.980;2024-02-26T00:20:02;30.71;29.29;32.15;;
71020;Laerm;58902;51.436;5.980;2024-02-26T00:20:14;30.77;29.52;32.15;;
71020;Laerm;58902;51.436;5.980;2024-02-26T00:20:24;31.59;29.82;35.50;;
71020;Laerm;58902;51.436;5.980;2024-02-26T00:20:35;32.56;30.25;40.42;;
71020;Laerm;58902;51.436;5.980;2024-02-26T00:20:46;32.20;30.30;34.22;;
71020;Laerm;58902;51.436;5.980;2024-02-26T00:20:56;31.31;29.75;32.75;;
71020;Laerm;58902;51.436;5.980;2024-02-26T00:21:06;30.86;29.36;32.14;;
71020;Laerm;58902;51.436;5.980;2024-02-26T00:21:17;30.93;29.73;32.24;;
71020;Laerm;58902;51.436;5.980;2024-02-26T00:21:27;31.35;29.84;32.73;;
71020;Laerm;58902;51.436;5.980;2024-02-26T00:21:41;31.29;29.80;36.83;;
71020;Laerm;58902;51.436;5.980;2024-02-26T00:21:54;31.10;29.47;32.81;;
71020;Laerm;58902;51.436;5.980;2024-02-26T00:22:05;30.90;29.70;32.59;;
71020;Laerm;58902;51.436;5.980;2024-02-26T00:22:16;32.83;29.54;48.47;;
71020;Laerm;58902;51.436;5.980;2024-02-26T00:22:26;31.06;29.85;32.29;;
71020;Laerm;58902;51.436;5.980;2024-02-26T00:22:36;31.05;29.25;32.47;;
71020;Laerm;58902;51.436;5.980;2024-02-26T00:22:47;30.60;29.49;31.89;;
71020;Laerm;58902;51.436;5.980;2024-02-26T00:22:57;31.24;29.59;33.62;;
71020;Laerm;58902;51.436;5.980;2024-02-26T00:23:08;31.32;30.18;33.50;;
71020;Laerm;58902;51.436;5.980;2024-02-26T00:23:18;31.91;30.51;33.87;;
71020;Laerm;58902;51.436;5.980;2024-02-26T00:23:28;31.34;29.96;33.06;;
71020;Laerm;58902;51.436;5.980;2024-02-26T00:23:38;31.15;28.80;33.13;;
71020;Laerm;58902;51.436;5.980;2024-02-26T00:23:49;31.55;29.77;39.40;;
71020;Laerm;58902;51.436;5.980;2024-02-26T00:24:00;30.90;29.60;32.25;;
71020;Laerm;58902;51.436;5.980;2024-02-26T00:24:11;31.98;29.66;35.09;;
71020;Laerm;58902;51.436;5.980;2024-02-26T00:24:21;31.40;29.89;33.18;;
71020;Laerm;58902;51.436;5.980;2024-02-26T00:24:32;31.80;30.27;34.68;;
71020;Laerm;58902;51.436;5.980;2024-02-26T00:24:42;30.95;29.46;32.94;;
71020;Laerm;58902;51.436;5.980;2024-02-26T00:24:52;32.48;29.82;36.75;;
71020;Laerm;58902;51.436;5.980;2024-02-26T00:25:03;32.50;30.05;36.33;;
71020;Laerm;58902;51.436;5.980;2024-02-26T00:25:14;31.43;29.96;33.10;;
71020;Laerm;58902;51.436;5.980;2024-02-26T00:25:24;31.58;30.25;33.33;;
71020;Laerm;58902;51.436;5.980;2024-02-26T00:25:34;31.49;30.14;32.54;;
71020;Laerm;58902;51.436;5.980;2024-02-26T00:25:46;31.55;29.83;35.99;;
71020;Laerm;58902;51.436;5.980;2024-02-26T00:25:56;31.63;29.83;39.52;;
71020;Laerm;58902;51.436;5.980;2024-02-26T00:26:06;31.26;29.96;32.51;;
71020;Laerm;58902;51.436;5.980;2024-02-26T00:26:17;31.88;29.86;36.78;;
71020;Laerm;58902;51.436;5.980;2024-02-26T00:26:28;32.16;30.77;34.09;;
71020;Laerm;58902;51.436;5.980;2024-02-26T00:26:38;32.51;30.95;34.67;;
71020;Laerm;58902;51.436;5.980;2024-02-26T00:26:49;32.51;31.19;34.22;;
71020;Laerm;58902;51.436;5.980;2024-02-26T00:27:03;31.97;30.28;33.39;;
71020;Laerm;58902;51.436;5.980;2024-02-26T00:27:13;31.93;30.21;34.03;;
71020;Laerm;58902;51.436;5.980;2024-02-26T00:27:24;32.58;30.32;35.47;;
71020;Laerm;58902;51.436;5.980;2024-02-26T00:27:34;32.72;31.08;35.28;;
71020;Laerm;58902;51.436;5.980;2024-02-26T00:27:44;32.92;31.55;34.88;;
71020;Laerm;58902;51.436;5.980;2024-02-26T00:27:55;32.48;30.73;34.57;;
71020;Laerm;58902;51.436;5.980;2024-02-26T00:28:05;32.11;30.49;34.28;;
71020;Laerm;58902;51.436;5.980;2024-02-26T00:28:15;32.38;31.01;34.57;;
71020;Laerm;58902;51.436;5.980;2024-02-26T00:28:26;32.16;30.61;34.07;;
71020;Laerm;58902;51.436;5.980;2024-02-26T00:28:37;32.50;30.59;36.28;;
71020;Laerm;58902;51.436;5.980;2024-02-26T00:28:47;32.05;30.65;34.03;;
71020;Laerm;58902;51.436;5.980;2024-02-26T00:28:58;32.18;30.49;35.27;;
71020;Laerm;58902;51.436;5.980;2024-02-26T00:29:08;32.45;30.50;37.97;;
71020;Laerm;58902;51.436;5.980;2024-02-26T00:29:19;32.63;30.97;34.44;;
71020;Laerm;58902;51.436;5.980;2024-02-26T00:29:30;32.08;30.49;33.59;;
71020;Laerm;58902;51.436;5.980;2024-02-26T00:29:40;31.78;30.54;36.26;;
71020;Laerm;58902;51.436;5.980;2024-02-26T00:29:50;32.28;30.76;34.26;;
71020;Laerm;58902;51.436;5.980;2024-02-26T00:30:01;32.95;31.06;36.30;;
71020;Laerm;58902;51.436;5.980;2024-02-26T00:30:11;32.58;30.67;35.07;;
71020;Laerm;58902;51.436;5.980;2024-02-26T00:30:22;32.67;31.14;35.29;;
71020;Laerm;58902;51.436;5.980;2024-02-26T00:30:33;32.38;30.56;34.05;;
71020;Laerm;58902;51.436;5.980;2024-02-26T00:30:43;32.31;30.71;35.79;;
71020;Laerm;58902;51.436;5.980;2024-02-26T00:30:53;32.39;30.88;35.33;;
71020;Laerm;58902;51.436;5.980;2024-02-26T00:31:06;39.60;30.44;53.67;;
71020;Laerm;58902;51.436;5.980;2024-02-26T00:31:16;32.99;30.20;38.12;;
71020;Laerm;58902;51.436;5.980;2024-02-26T00:31:26;32.24;30.16;35.55;;
71020;Laerm;58902;51.436;5.980;2024-02-26T00:31:37;32.17;30.59;35.46;;
71020;Laerm;58902;51.436;5.980;2024-02-26T00:31:48;32.59;30.48;38.29;;
71020;Laerm;58902;51.436;5.980;2024-02-26T00:31:58;32.39;30.64;34.54;;
71020;Laerm;58902;51.436;5.980;2024-02-26T00:32:09;32.42;30.87;35.44;;
71020;Laerm;58902;51.436;5.980;2024-02-26T00:32:19;32.20;30.62;35.22;;
71020;Laerm;58902;51.436;5.980;2024-02-26T00:32:29;33.09;31.00;37.46;;
71020;Laerm;58902;51.436;5.980;2024-02-26T00:32:40;33.63;32.23;37.67;;
71020;Laerm;58902;51.436;5.980;2024-02-26T00:32:50;33.85;32.35;35.61;;
71020;Laerm;58902;51.436;5.980;2024-02-26T00:33:00;33.52;31.79;36.16;;
71020;Laerm;58902;51.436;5.980;2024-02-26T00:33:11;32.84;31.01;34.64;;
71020;Laerm;58902;51.436;5.980;2024-02-26T00:33:21;32.48;30.60;34.31;;
71020;Laerm;58902;51.436;5.980;2024-02-26T00:33:32;32.81;31.25;35.46;;
71020;Laerm;58902;51.436;5.980;2024-02-26T00:33:42;33.22;32.00;34.86;;
71020;Laerm;58902;51.436;5.980;2024-02-26T00:33:53;33.39;31.53;35.75;;
71020;Laerm;58902;51.436;5.980;2024-02-26T00:34:03;33.32;31.60;36.12;;
71020;Laerm;58902;51.436;5.980;2024-02-26T00:34:14;32.87;31.63;34.62;;
71020;Laerm;58902;51.436;5.980;2024-02-26T00:34:24;33.27;31.59;35.12;;
71020;Laerm;58902;51.436;5.980;2024-02-26T00:34:34;33.40;31.92;36.40;;
71020;Laerm;58902;51.436;5.980;2024-02-26T00:34:45;32.78;31.49;35.72;;
71020;Laerm;58902;51.436;5.980;2024-02-26T00:34:55;32.62;30.82;34.86;;
71020;Laerm;58902;51.436;5.980;2024-02-26T00:35:06;32.70;31.25;35.91;;
71020;Laerm;58902;51.436;5.980;2024-02-26T00:35:16;32.45;30.88;34.69;;
71020;Laerm;58902;51.436;5.980;2024-02-26T00:35:30;32.65;30.75;34.25;;
71020;Laerm;58902;51.436;5.980;2024-02-26T00:35:41;32.69;30.92;39.27;;
71020;Laerm;58902;51.436;5.980;2024-02-26T00:35:51;34.71;30.57;46.39;;
71020;Laerm;58902;51.436;5.980;2024-02-26T00:36:01;32.11;30.71;34.02;;
71020;Laerm;58902;51.436;5.980;2024-02-26T00:36:12;32.54;30.10;36.40;;
71020;Laerm;58902;51.436;5.980;2024-02-26T00:36:22;34.01;31.22;39.44;;
71020;Laerm;58902;51.436;5.980;2024-02-26T00:36:32;34.51;32.46;41.41;;
71020;Laerm;58902;51.436;5.980;2024-02-26T00:36:43;32.69;31.21;35.53;;
71020;Laerm;58902;51.436;5.980;2024-02-26T00:36:53;32.82;31.12;35.24;;
71020;Laerm;58902;51.436;5.980;2024-02-26T00:37:03;32.18;30.64;35.11;;
71020;Laerm;58902;51.436;5.980;2024-02-26T00:37:14;32.98;30.98;44.73;;
71020;Laerm;58902;51.436;5.980;2024-02-26T00:37:24;32.71;30.72;35.82;;
71020;Laerm;58902;51.436;5.980;2024-02-26T00:37:35;32.75;31.18;35.56;;
71020;Laerm;58902;51.436;5.980;2024-02-26T00:37:45;33.53;31.84;36.85;;
71020;Laerm;58902;51.436;5.980;2024-02-26T00:37:55;33.86;32.21;36.69;;
71020;Laerm;58902;51.436;5.980;2024-02-26T00:38:06;33.52;31.68;35.56;;
71020;Laerm;58902;51.436;5.980;2024-02-26T00:38:16;34.36;32.16;36.52;;
71020;Laerm;58902;51.436;5.980;2024-02-26T00:38:26;34.00;31.96;36.36;;
71020;Laerm;58902;51.436;5.980;2024-02-26T00:38:37;33.24;30.87;34.95;;
71020;Laerm;58902;51.436;5.980;2024-02-26T00:38:47;32.55;31.21;34.51;;
71020;Laerm;58902;51.436;5.980;2024-02-26T00:39:01;33.69;31.18;44.49;;
71020;Laerm;58902;51.436;5.980;2024-02-26T00:39:13;34.44;32.72;37.67;;
71020;Laerm;58902;51.436;5.980;2024-02-26T00:39:23;33.82;31.84;35.81;;
71020;Laerm;58902;51.436;5.980;2024-02-26T00:39:34;33.86;32.22;38.84;;
71020;Laerm;58902;51.436;5.980;2024-02-26T00:39:44;33.03;31.44;35.05;;
71020;Laerm;58902;51.436;5.980;2024-02-26T00:39:56;32.96;31.09;37.06;;
71020;Laerm;58902;51.436;5.980;2024-02-26T00:40:07;32.40;30.29;34.98;;
71020;Laerm;58902;51.436;5.980;2024-02-26T00:40:18;32.72;31.39;35.14;;
71020;Laerm;58902;51.436;5.980;2024-02-26T00:40:29;32.92;31.24;35.50;;
71020;Laerm;58902;51.436;5.980;2024-02-26T00:40:39;32.66;30.91;35.96;;
71020;Laerm;58902;51.436;5.980;2024-02-26T00:40:50;32.62;30.67;36.77;;
71020;Laerm;58902;51.436;5.980;2024-02-26T00:41:01;32.59;30.94;37.83;;
71020;Laerm;58902;51.436;5.980;2024-02-26T00:41:11;32.34;30.18;34.47;;
71020;Laerm;58902;51.436;5.980;2024-02-26T00:41:21;32.01;30.66;36.10;;
71020;Laerm;58902;51.436;5.980;2024-02-26T00:41:32;33.66;30.59;42.70;;
71020;Laerm;58902;51.436;5.980;2024-02-26T00:41:42;32.96;31.15;38.81;;
71020;Laerm;58902;51.436;5.980;2024-02-26T00:41:52;32.81;31.13;37.04;;
71020;Laerm;58902;51.436;5.980;2024-02-26T00:42:03;33.78;31.71;39.34;;
71020;Laerm;58902;51.436;5.980;2024-02-26T00:42:13;32.98;31.10;35.49;;
71020;Laerm;58902;51.436;5.980;2024-02-26T00:42:23;33.11;31.27;37.32;;
71020;Laerm;58902;51.436;5.980;2024-02-26T00:42:34;32.99;31.22;37.28;;
71020;Laerm;58902;51.436;5.980;2024-02-26T00:42:44;32.72;31.07;36.35;;
71020;Laerm;58902;51.436;5.980;2024-02-26T00:42:56;32.58;29.88;39.81;;
71020;Laerm;58902;51.436;5.980;2024-02-26T00:43:09;33.02;30.92;37.63;;
71020;Laerm;58902;51.436;5.980;2024-02-26T00:43:19;33.15;30.49;38.99;;
71020;Laerm;58902;51.436;5.980;2024-02-26T00:43:29;33.07;31.13;36.93;;
71020;Laerm;58902;51.436;5.980;2024-02-26T00:43:40;32.99;31.04;37.52;;
71020;Laerm;58902;51.436;5.980;2024-02-26T00:43:52;33.07;31.12;36.63;;
71020;Laerm;58902;51.436;5.980;2024-02-26T00:44:02;33.04;31.06;36.53;;
71020;Laerm;58902;51.436;5.980;2024-02-26T00:44:13;33.16;31.32;37.02;;
71020;Laerm;58902;51.436;5.980;2024-02-26T00:44:23;32.97;30.82;37.99;;
71020;Laerm;58902;51.436;5.980;2024-02-26T00:44:33;32.67;30.69;36.39;;
71020;Laerm;58902;51.436;5.980;2024-02-26T00:44:44;32.22;30.33;37.13;;
71020;Laerm;58902;51.436;5.980;2024-02-26T00:44:54;31.96;29.84;37.76;;
71020;Laerm;58902;51.436;5.980;2024-02-26T00:45:04;32.25;29.87;39.22;;
71020;Laerm;58902;51.436;5.980;2024-02-26T00:45:16;31.73;29.96;33.73;;
71020;Laerm;58902;51.436;5.980;2024-02-26T00:45:27;31.93;30.16;34.04;;
71020;Laerm;58902;51.436;5.980;2024-02-26T00:45:37;31.91;29.90;34.57;;
71020;Laerm;58902;51.436;5.980;2024-02-26T00:45:47;32.07;30.53;34.12;;
71020;Laerm;58902;51.436;5.980;2024-02-26T00:45:58;31.90;29.97;34.26;;
71020;Laerm;58902;51.436;5.980;2024-02-26T00:46:09;32.38;30.37;36.08;;
71020;Laerm;58902;51.436;5.980;2024-02-26T00:46:19;32.29;30.40;34.83;;
71020;Laerm;58902;51.436;5.980;2024-02-26T00:46:30;32.87;31.21;36.45;;
71020;Laerm;58902;51.436;5.980;2024-02-26T00:46:40;32.59;31.07;34.64;;
71020;Laerm;58902;51.436;5.980;2024-02-26T00:46:50;32.27;30.79;34.41;;
71020;Laerm;58902;51.436;5.980;2024-02-26T00:47:01;31.98;30.45;33.82;;
71020;Laerm;58902;51.436;5.980;2024-02-26T00:47:12;32.08;30.43;35.09;;
71020;Laerm;58902;51.436;5.980;2024-02-26T00:47:22;31.28;29.75;32.97;;
71020;Laerm;58902;51.436;5.980;2024-02-26T00:47:32;31.72;30.43;34.10;;
71020;Laerm;58902;51.436;5.980;2024-02-26T00:47:43;32.43;30.66;35.08;;
71020;Laerm;58902;51.436;5.980;2024-02-26T00:47:55;32.19;30.42;35.54;;
71020;Laerm;58902;51.436;5.980;2024-02-26T00:48:06;32.06;30.52;35.18;;
71020;Laerm;58902;51.436;5.980;2024-02-26T00:48:17;31.84;30.18;33.63;;
71020;Laerm;58902;51.436;5.980;2024-02-26T00:48:27;31.68;30.34;33.16;;
71020;Laerm;58902;51.436;5.980;2024-02-26T00:48:38;31.68;30.34;36.40;;
71020;Laerm;58902;51.436;5.980;2024-02-26T00:48:48;31.42;29.99;33.23;;
71020;Laerm;58902;51.436;5.980;2024-02-26T00:48:58;31.79;29.75;36.86;;
71020;Laerm;58902;51.436;5.980;2024-02-26T00:49:09;31.60;29.98;34.53;;
71020;Laerm;58902;51.436;5.980;2024-02-26T00:49:19;32.13;30.90;35.30;;
71020;Laerm;58902;51.436;5.980;2024-02-26T00:49:29;32.13;30.68;34.54;;
71020;Laerm;58902;51.436;5.980;2024-02-26T00:49:39;34.03;31.13;36.69;;
71020;Laerm;58902;51.436;5.980;2024-02-26T00:49:50;36.08;34.02;37.85;;
71020;Laerm;58902;51.436;5.980;2024-02-26T00:50:00;36.33;34.16;37.88;;
71020;Laerm;58902;51.436;5.980;2024-02-26T00:50:10;32.69;29.94;37.17;;
71020;Laerm;58902;51.436;5.980;2024-02-26T00:50:21;31.56;30.11;33.64;;
71020;Laerm;58902;51.436;5.980;2024-02-26T00:50:31;31.93;30.43;33.40;;
71020;Laerm;58902;51.436;5.980;2024-02-26T00:50:42;31.63;29.96;33.43;;
71020;Laerm;58902;51.436;5.980;2024-02-26T00:50:53;31.78;30.13;33.32;;
71020;Laerm;58902;51.436;5.980;2024-02-26T00:51:03;31.99;30.39;33.44;;
71020;Laerm;58902;51.436;5.980;2024-02-26T00:51:17;33.17;30.75;37.09;;
71020;Laerm;58902;51.436;5.980;2024-02-26T00:51:28;34.92;31.78;41.70;;
71020;Laerm;58902;51.436;5.980;2024-02-26T00:51:38;33.02;30.69;39.89;;
71020;Laerm;58902;51.436;5.980;2024-02-26T00:51:49;33.06;30.48;36.93;;
71020;Laerm;58902;51.436;5.980;2024-02-26T00:51:59;34.41;30.82;40.12;;
71020;Laerm;58902;51.436;5.980;2024-02-26T00:52:09;33.98;30.66;40.15;;
71020;Laerm;58902;51.436;5.980;2024-02-26T00:52:19;34.01;31.74;37.95;;
71020;Laerm;58902;51.436;5.980;2024-02-26T00:52:30;33.07;30.72;36.58;;
71020;Laerm;58902;51.436;5.980;2024-02-26T00:52:40;34.23;30.73;38.04;;
71020;Laerm;58902;51.436;5.980;2024-02-26T00:52:50;34.99;33.40;36.80;;
71020;Laerm;58902;51.436;5.980;2024-02-26T00:53:01;36.62;34.70;40.54;;
71020;Laerm;58902;51.436;5.980;2024-02-26T00:53:12;33.63;30.46;39.87;;
71020;Laerm;58902;51.436;5.980;2024-02-26T00:53:22;32.67;30.70;35.33;;
71020;Laerm;58902;51.436;5.980;2024-02-26T00:53:32;32.46;30.75;34.06;;
71020;Laerm;58902;51.436;5.980;2024-02-26T00:53:43;32.13;30.30;33.60;;
71020;Laerm;58902;51.436;5.980;2024-02-26T00:53:53;32.08;30.83;33.51;;
71020;Laerm;58902;51.436;5.980;2024-02-26T00:54:04;32.65;30.99;34.18;;
71020;Laerm;58902;51.436;5.980;2024-02-26T00:54:14;33.70;31.10;37.01;;
71020;Laerm;58902;51.436;5.980;2024-02-26T00:54:25;33.42;32.08;34.70;;
71020;Laerm;58902;51.436;5.980;2024-02-26T00:54:35;33.06;30.79;34.47;;
71020;Laerm;58902;51.436;5.980;2024-02-26T00:54:45;32.45;30.38;34.00;;
71020;Laerm;58902;51.436;5.980;2024-02-26T00:54:56;32.44;31.03;35.67;;
71020;Laerm;58902;51.436;5.980;2024-02-26T00:55:06;32.35;31.03;34.74;;
71020;Laerm;58902;51.436;5.980;2024-02-26T00:55:17;31.60;30.46;33.78;;
71020;Laerm;58902;51.436;5.980;2024-02-26T00:55:27;32.05;30.34;34.79;;
71020;Laerm;58902;51.436;5.980;2024-02-26T00:55:37;31.94;30.49;35.13;;
71020;Laerm;58902;51.436;5.980;2024-02-26T00:55:48;32.61;30.82;37.17;;
71020;Laerm;58902;51.436;5.980;2024-02-26T00:55:58;34.21;31.25;38.24;;
71020;Laerm;58902;51.436;5.980;2024-02-26T00:56:09;32.85;31.13;35.71;;
71020;Laerm;58902;51.436;5.980;2024-02-26T00:56:19;32.60;31.29;35.21;;
71020;Laerm;58902;51.436;5.980;2024-02-26T00:56:29;34.48;31.40;43.39;;
71020;Laerm;58902;51.436;5.980;2024-02-26T00:56:40;34.62;31.86;40.37;;
71020;Laerm;58902;51.436;5.980;2024-02-26T00:56:50;35.03;33.63;36.63;;
71020;Laerm;58902;51.436;5.980;2024-02-26T00:57:00;34.12;32.11;38.86;;
71020;Laerm;58902;51.436;5.980;2024-02-26T00:57:11;33.27;31.52;36.25;;
71020;Laerm;58902;51.436;5.980;2024-02-26T00:57:21;33.15;31.02;38.25;;
71020;Laerm;58902;51.436;5.980;2024-02-26T00:57:32;33.61;32.11;36.50;;
71020;Laerm;58902;51.436;5.980;2024-02-26T00:57:42;34.57;32.36;37.65;;
71020;Laerm;58902;51.436;5.980;2024-02-26T00:57:52;33.73;31.04;36.16;;
71020;Laerm;58902;51.436;5.980;2024-02-26T00:58:03;33.07;31.46;38.46;;
71020;Laerm;58902;51.436;5.980;2024-02-26T00:58:13;33.36;30.96;38.31;;
71020;Laerm;58902;51.436;5.980;2024-02-26T00:58:23;33.51;31.21;36.82;;
71020;Laerm;58902;51.436;5.980;2024-02-26T00:58:34;33.07;31.52;36.98;;
71020;Laerm;58902;51.436;5.980;2024-02-26T00:58:44;33.54;31.82;36.35;;
71020;Laerm;58902;51.436;5.980;2024-02-26T00:58:54;33.22;31.35;35.77;;
71020;Laerm;58902;51.436;5.980;2024-02-26T00:59:05;33.00;30.91;40.07;;
71020;Laerm;58902;51.436;5.980;2024-02-26T00:59:15;33.09;31.22;37.02;;
71020;Laerm;58902;51.436;5.980;2024-02-26T00:59:26;32.85;31.33;36.44;;